< < Back
Terminal Aerodrome Forecast


Current Version              Previous Versions:   1  2  3  4  5  6  7  8  9  

Terminal Aerodrome Forecast

103
FTUS42 KMLB 200700 AAA
TAFDAB
TAF AMD
KDAB 200715Z 2007/2106 VRB03KT P6SM -RA FEW015 SCT030 OVC080
     FM201400 04005KT P6SM VCSH BKN030 OVC050
     FM201800 34007KT P6SM VCSH SCT030 OVC040
      TEMPO 2018/2021 3SM TSRA BKN025CB
     FM210000 VRB03KT P6SM SCT025 BKN040 BKN080=



Latest METAR

316
SAUS80 KWBC 201600 CCA
MTRDAB
METAR KDAB 201553Z 36009KT 10SM FEW016 SCT045 BKN150 BKN200 26/21 A2993
RMK AO2 SLP135 T02560211


USA.gov is the U.S. government's official web portal to all federal, state and local government web resources and services.